sensor_id;sensor_type;location;lat;lon;timestamp;temperature;humidity
6956;DHT22;50345;51.136;16.886;2023-10-19T00:00:48;4.90;99.90
6956;DHT22;50345;51.136;16.886;2023-10-19T00:03:18;4.90;99.90
6956;DHT22;50345;51.136;16.886;2023-10-19T00:05:45;4.90;99.90
6956;DHT22;50345;51.136;16.886;2023-10-19T00:08:12;4.90;99.90
6956;DHT22;50345;51.136;16.886;2023-10-19T00:10:44;4.80;99.90
6956;DHT22;50345;51.136;16.886;2023-10-19T00:13:14;4.80;99.90
6956;DHT22;50345;51.136;16.886;2023-10-19T00:15:43;4.80;99.90
6956;DHT22;50345;51.136;16.886;2023-10-19T00:18:18;4.80;99.90
6956;DHT22;50345;51.136;16.886;2023-10-19T00:20:45;4.80;99.90
6956;DHT22;50345;51.136;16.886;2023-10-19T00:23:11;4.80;99.90
6956;DHT22;50345;51.136;16.886;2023-10-19T00:25:39;4.80;99.90
6956;DHT22;50345;51.136;16.886;2023-10-19T00:28:09;4.80;99.90
6956;DHT22;50345;51.136;16.886;2023-10-19T00:30:38;4.80;99.90
6956;DHT22;50345;51.136;16.886;2023-10-19T00:33:04;4.80;99.90
6956;DHT22;50345;51.136;16.886;2023-10-19T00:35:40;4.80;99.90
6956;DHT22;50345;51.136;16.886;2023-10-19T00:38:13;4.70;99.90
6956;DHT22;50345;51.136;16.886;2023-10-19T00:40:57;4.70;99.90
6956;DHT22;50345;51.136;16.886;2023-10-19T00:43:31;4.70;99.90
6956;DHT22;50345;51.136;16.886;2023-10-19T00:46:02;4.70;99.90
6956;DHT22;50345;51.136;16.886;2023-10-19T00:48:35;4.80;99.90
6956;DHT22;50345;51.136;16.886;2023-10-19T00:51:02;4.80;99.90
6956;DHT22;50345;51.136;16.886;2023-10-19T00:53:47;4.80;99.90
6956;DHT22;50345;51.136;16.886;2023-10-19T00:56:15;4.70;99.90
6956;DHT22;50345;51.136;16.886;2023-10-19T00:58:42;4.80;99.90
6956;DHT22;50345;51.136;16.886;2023-10-19T01:01:13;4.80;99.90
6956;DHT22;50345;51.136;16.886;2023-10-19T01:03:39;4.80;99.90
6956;DHT22;50345;51.136;16.886;2023-10-19T01:06:05;4.80;99.90
6956;DHT22;50345;51.136;16.886;2023-10-19T01:08:36;4.70;99.90
6956;DHT22;50345;51.136;16.886;2023-10-19T01:11:10;4.70;99.90
6956;DHT22;50345;51.136;16.886;2023-10-19T01:13:41;4.70;99.90
6956;DHT22;50345;51.136;16.886;2023-10-19T01:16:17;4.80;99.90
6956;DHT22;50345;51.136;16.886;2023-10-19T01:18:49;4.80;99.90
6956;DHT22;50345;51.136;16.886;2023-10-19T01:21:22;4.80;99.90
6956;DHT22;50345;51.136;16.886;2023-10-19T01:23:50;4.80;99.90
6956;DHT22;50345;51.136;16.886;2023-10-19T01:26:16;4.80;99.90
6956;DHT22;50345;51.136;16.886;2023-10-19T01:28:48;4.80;99.90
6956;DHT22;50345;51.136;16.886;2023-10-19T01:31:21;4.80;99.90
6956;DHT22;50345;51.136;16.886;2023-10-19T01:33:53;4.80;99.90
6956;DHT22;50345;51.136;16.886;2023-10-19T01:36:21;4.70;99.90
6956;DHT22;50345;51.136;16.886;2023-10-19T01:38:47;4.70;99.90
6956;DHT22;50345;51.136;16.886;2023-10-19T01:41:13;4.70;99.90
6956;DHT22;50345;51.136;16.886;2023-10-19T01:43:43;4.70;99.90
6956;DHT22;50345;51.136;16.886;2023-10-19T01:46:10;4.70;99.90
6956;DHT22;50345;51.136;16.886;2023-10-19T01:48:42;4.70;99.90
6956;DHT22;50345;51.136;16.886;2023-10-19T01:51:10;4.70;99.90
6956;DHT22;50345;51.136;16.886;2023-10-19T01:53:37;4.60;99.90
6956;DHT22;50345;51.136;16.886;2023-10-19T01:56:08;4.60;99.90
6956;DHT22;50345;51.136;16.886;2023-10-19T01:58:41;4.60;99.90
6956;DHT22;50345;51.136;16.886;2023-10-19T02:01:07;4.60;99.90
6956;DHT22;50345;51.136;16.886;2023-10-19T02:03:42;4.60;99.90
6956;DHT22;50345;51.136;16.886;2023-10-19T02:06:13;4.60;99.90
6956;DHT22;50345;51.136;16.886;2023-10-19T02:11:23;4.60;99.90
6956;DHT22;50345;51.136;16.886;2023-10-19T02:13:54;4.60;99.90
6956;DHT22;50345;51.136;16.886;2023-10-19T02:16:20;4.60;99.90
6956;DHT22;50345;51.136;16.886;2023-10-19T02:18:51;4.60;99.90
6956;DHT22;50345;51.136;16.886;2023-10-19T02:21:17;4.60;99.90
6956;DHT22;50345;51.136;16.886;2023-10-19T02:23:53;4.70;99.90
6956;DHT22;50345;51.136;16.886;2023-10-19T02:26:19;4.70;99.90
6956;DHT22;50345;51.136;16.886;2023-10-19T02:28:46;4.80;99.90
6956;DHT22;50345;51.136;16.886;2023-10-19T02:31:12;4.80;99.90
6956;DHT22;50345;51.136;16.886;2023-10-19T02:33:44;4.80;99.90
6956;DHT22;50345;51.136;16.886;2023-10-19T02:36:17;4.80;99.90
6956;DHT22;50345;51.136;16.886;2023-10-19T02:38:45;4.90;99.90
6956;DHT22;50345;51.136;16.886;2023-10-19T02:41:15;4.90;99.90
6956;DHT22;50345;51.136;16.886;2023-10-19T02:43:41;4.90;99.90
6956;DHT22;50345;51.136;16.886;2023-10-19T02:46:11;4.90;99.90
6956;DHT22;50345;51.136;16.886;2023-10-19T02:48:39;4.90;99.90
6956;DHT22;50345;51.136;16.886;2023-10-19T02:51:12;4.90;99.90
6956;DHT22;50345;51.136;16.886;2023-10-19T02:53:39;4.90;99.90
6956;DHT22;50345;51.136;16.886;2023-10-19T02:56:15;4.90;99.90
6956;DHT22;50345;51.136;16.886;2023-10-19T02:58:46;4.90;99.90
6956;DHT22;50345;51.136;16.886;2023-10-19T03:01:21;4.90;99.90
6956;DHT22;50345;51.136;16.886;2023-10-19T03:03:56;4.90;99.90
6956;DHT22;50345;51.136;16.886;2023-10-19T03:06:29;4.90;99.90
6956;DHT22;50345;51.136;16.886;2023-10-19T03:08:58;4.90;99.90
6956;DHT22;50345;51.136;16.886;2023-10-19T03:11:24;5.00;99.90
6956;DHT22;50345;51.136;16.886;2023-10-19T03:13:51;5.00;99.90
6956;DHT22;50345;51.136;16.886;2023-10-19T03:16:18;5.00;99.90
6956;DHT22;50345;51.136;16.886;2023-10-19T03:18:44;5.00;99.90
6956;DHT22;50345;51.136;16.886;2023-10-19T03:21:10;5.00;99.90
6956;DHT22;50345;51.136;16.886;2023-10-19T03:23:36;5.00;99.90
6956;DHT22;50345;51.136;16.886;2023-10-19T03:26:03;5.00;99.90
6956;DHT22;50345;51.136;16.886;2023-10-19T03:28:48;5.00;99.90
6956;DHT22;50345;51.136;16.886;2023-10-19T03:31:14;5.00;99.90
6956;DHT22;50345;51.136;16.886;2023-10-19T03:33:46;5.00;99.90
6956;DHT22;50345;51.136;16.886;2023-10-19T03:36:15;5.10;99.90
6956;DHT22;50345;51.136;16.886;2023-10-19T03:38:41;5.10;99.90
6956;DHT22;50345;51.136;16.886;2023-10-19T03:41:07;5.10;99.90
6956;DHT22;50345;51.136;16.886;2023-10-19T03:43:34;5.10;99.90
6956;DHT22;50345;51.136;16.886;2023-10-19T03:46:02;5.20;99.90
6956;DHT22;50345;51.136;16.886;2023-10-19T03:48:32;5.20;99.90
6956;DHT22;50345;51.136;16.886;2023-10-19T03:51:04;5.20;99.90
6956;DHT22;50345;51.136;16.886;2023-10-19T03:53:30;5.30;99.90
6956;DHT22;50345;51.136;16.886;2023-10-19T03:55:57;5.30;99.90
6956;DHT22;50345;51.136;16.886;2023-10-19T03:58:23;5.30;99.90
6956;DHT22;50345;51.136;16.886;2023-10-19T04:00:48;5.30;99.90
6956;DHT22;50345;51.136;16.886;2023-10-19T04:03:17;5.30;99.90
6956;DHT22;50345;51.136;16.886;2023-10-19T04:05:43;5.40;99.90
6956;DHT22;50345;51.136;16.886;2023-10-19T04:08:13;5.40;99.90
6956;DHT22;50345;51.136;16.886;2023-10-19T04:10:46;5.40;99.90
6956;DHT22;50345;51.136;16.886;2023-10-19T04:13:30;5.50;99.90
6956;DHT22;50345;51.136;16.886;2023-10-19T04:15:56;5.50;99.90
6956;DHT22;50345;51.136;16.886;2023-10-19T04:18:21;5.60;99.90
6956;DHT22;50345;51.136;16.886;2023-10-19T04:20:50;5.60;99.90
6956;DHT22;50345;51.136;16.886;2023-10-19T04:23:19;5.60;99.90
6956;DHT22;50345;51.136;16.886;2023-10-19T04:25:47;5.60;99.90
6956;DHT22;50345;51.136;16.886;2023-10-19T04:28:12;5.70;99.90
6956;DHT22;50345;51.136;16.886;2023-10-19T04:30:42;5.70;99.90
6956;DHT22;50345;51.136;16.886;2023-10-19T04:33:08;5.70;99.90
6956;DHT22;50345;51.136;16.886;2023-10-19T04:35:37;5.80;99.90
6956;DHT22;50345;51.136;16.886;2023-10-19T04:38:04;5.80;99.90
6956;DHT22;50345;51.136;16.886;2023-10-19T04:40:32;5.80;99.90
6956;DHT22;50345;51.136;16.886;2023-10-19T04:42:57;5.80;99.90
6956;DHT22;50345;51.136;16.886;2023-10-19T04:45:23;5.90;99.90
6956;DHT22;50345;51.136;16.886;2023-10-19T04:47:52;5.90;99.90
6956;DHT22;50345;51.136;16.886;2023-10-19T04:50:18;5.90;99.90
6956;DHT22;50345;51.136;16.886;2023-10-19T04:52:44;5.90;99.90
6956;DHT22;50345;51.136;16.886;2023-10-19T04:55:10;6.00;99.90
6956;DHT22;50345;51.136;16.886;2023-10-19T04:57:35;6.00;99.90
6956;DHT22;50345;51.136;16.886;2023-10-19T05:00:01;6.00;99.90
6956;DHT22;50345;51.136;16.886;2023-10-19T05:02:27;6.00;99.90
6956;DHT22;50345;51.136;16.886;2023-10-19T05:04:52;6.00;99.90
6956;DHT22;50345;51.136;16.886;2023-10-19T05:07:19;6.10;99.90
6956;DHT22;50345;51.136;16.886;2023-10-19T05:09:45;6.10;99.90
6956;DHT22;50345;51.136;16.886;2023-10-19T05:12:11;6.10;99.90
6956;DHT22;50345;51.136;16.886;2023-10-19T05:14:37;6.20;99.90
6956;DHT22;50345;51.136;16.886;2023-10-19T05:17:03;6.20;99.90
6956;DHT22;50345;51.136;16.886;2023-10-19T05:19:33;6.20;99.90
6956;DHT22;50345;51.136;16.886;2023-10-19T05:22:04;6.20;99.90
6956;DHT22;50345;51.136;16.886;2023-10-19T05:24:30;6.20;99.90
6956;DHT22;50345;51.136;16.886;2023-10-19T05:26:56;6.30;99.90
6956;DHT22;50345;51.136;16.886;2023-10-19T05:29:21;6.30;99.90
6956;DHT22;50345;51.136;16.886;2023-10-19T05:31:47;6.40;99.90
6956;DHT22;50345;51.136;16.886;2023-10-19T05:34:19;6.40;99.90
6956;DHT22;50345;51.136;16.886;2023-10-19T05:36:45;6.40;99.90
6956;DHT22;50345;51.136;16.886;2023-10-19T05:39:17;6.50;99.90
6956;DHT22;50345;51.136;16.886;2023-10-19T05:41:43;6.50;99.90
6956;DHT22;50345;51.136;16.886;2023-10-19T05:44:09;6.50;99.90
6956;DHT22;50345;51.136;16.886;2023-10-19T05:46:35;6.60;99.90
6956;DHT22;50345;51.136;16.886;2023-10-19T05:49:01;6.60;99.90
6956;DHT22;50345;51.136;16.886;2023-10-19T05:51:29;6.70;99.90
6956;DHT22;50345;51.136;16.886;2023-10-19T05:53:55;6.70;99.90
6956;DHT22;50345;51.136;16.886;2023-10-19T05:56:29;6.80;99.90
6956;DHT22;50345;51.136;16.886;2023-10-19T05:58:56;6.80;99.90
6956;DHT22;50345;51.136;16.886;2023-10-19T06:01:22;6.90;99.90
6956;DHT22;50345;51.136;16.886;2023-10-19T06:03:48;6.90;99.90
6956;DHT22;50345;51.136;16.886;2023-10-19T06:06:13;7.00;99.90
6956;DHT22;50345;51.136;16.886;2023-10-19T06:08:40;7.00;99.90
6956;DHT22;50345;51.136;16.886;2023-10-19T06:11:06;7.10;99.90
6956;DHT22;50345;51.136;16.886;2023-10-19T06:13:32;7.10;99.90
6956;DHT22;50345;51.136;16.886;2023-10-19T06:15:57;7.10;99.90
6956;DHT22;50345;51.136;16.886;2023-10-19T06:18:23;7.10;99.90
6956;DHT22;50345;51.136;16.886;2023-10-19T06:20:48;7.10;99.90
6956;DHT22;50345;51.136;16.886;2023-10-19T06:23:17;7.10;99.90
6956;DHT22;50345;51.136;16.886;2023-10-19T06:25:43;7.10;99.90
6956;DHT22;50345;51.136;16.886;2023-10-19T06:28:09;7.10;99.90
6956;DHT22;50345;51.136;16.886;2023-10-19T06:30:36;7.10;99.90
6956;DHT22;50345;51.136;16.886;2023-10-19T06:33:02;7.10;99.90
6956;DHT22;50345;51.136;16.886;2023-10-19T06:35:30;7.10;99.90
6956;DHT22;50345;51.136;16.886;2023-10-19T06:38:00;7.20;99.90
6956;DHT22;50345;51.136;16.886;2023-10-19T06:40:27;7.20;99.90
6956;DHT22;50345;51.136;16.886;2023-10-19T06:42:54;7.30;99.90
6956;DHT22;50345;51.136;16.886;2023-10-19T06:45:24;7.30;99.90
6956;DHT22;50345;51.136;16.886;2023-10-19T06:47:51;7.30;99.90
6956;DHT22;50345;51.136;16.886;2023-10-19T06:50:21;7.30;99.90
6956;DHT22;50345;51.136;16.886;2023-10-19T06:52:48;7.30;99.90
6956;DHT22;50345;51.136;16.886;2023-10-19T06:55:14;7.30;99.90
6956;DHT22;50345;51.136;16.886;2023-10-19T06:57:47;7.40;99.90
6956;DHT22;50345;51.136;16.886;2023-10-19T07:00:14;7.40;99.90
6956;DHT22;50345;51.136;16.886;2023-10-19T07:02:46;7.40;99.90
6956;DHT22;50345;51.136;16.886;2023-10-19T07:05:12;7.40;99.90
6956;DHT22;50345;51.136;16.886;2023-10-19T07:07:42;7.40;99.90
6956;DHT22;50345;51.136;16.886;2023-10-19T07:10:09;7.50;99.90
6956;DHT22;50345;51.136;16.886;2023-10-19T07:12:36;7.50;99.90
6956;DHT22;50345;51.136;16.886;2023-10-19T07:15:03;7.50;99.90
6956;DHT22;50345;51.136;16.886;2023-10-19T07:17:33;7.50;99.90
6956;DHT22;50345;51.136;16.886;2023-10-19T07:19:59;7.60;99.90
6956;DHT22;50345;51.136;16.886;2023-10-19T07:22:25;7.60;99.90
6956;DHT22;50345;51.136;16.886;2023-10-19T07:24:50;7.70;99.90
6956;DHT22;50345;51.136;16.886;2023-10-19T07:27:16;7.70;99.90
6956;DHT22;50345;51.136;16.886;2023-10-19T07:29:45;7.70;99.90
6956;DHT22;50345;51.136;16.886;2023-10-19T07:32:11;7.90;99.90
6956;DHT22;50345;51.136;16.886;2023-10-19T07:34:39;8.00;99.90
6956;DHT22;50345;51.136;16.886;2023-10-19T07:37:05;8.10;99.90
6956;DHT22;50345;51.136;16.886;2023-10-19T07:39:32;8.20;99.90
6956;DHT22;50345;51.136;16.886;2023-10-19T07:41:59;8.30;99.90
6956;DHT22;50345;51.136;16.886;2023-10-19T07:44:25;8.30;99.90
6956;DHT22;50345;51.136;16.886;2023-10-19T07:46:51;8.40;99.90
6956;DHT22;50345;51.136;16.886;2023-10-19T07:49:17;8.40;99.90
6956;DHT22;50345;51.136;16.886;2023-10-19T07:51:47;8.40;99.90
6956;DHT22;50345;51.136;16.886;2023-10-19T07:54:13;8.30;99.90
6956;DHT22;50345;51.136;16.886;2023-10-19T07:56:39;8.40;99.90
6956;DHT22;50345;51.136;16.886;2023-10-19T07:59:04;8.40;99.90
6956;DHT22;50345;51.136;16.886;2023-10-19T08:01:32;8.40;99.90
6956;DHT22;50345;51.136;16.886;2023-10-19T08:03:58;8.30;99.90
6956;DHT22;50345;51.136;16.886;2023-10-19T08:06:23;8.30;99.90
6956;DHT22;50345;51.136;16.886;2023-10-19T08:08:49;8.30;99.90
6956;DHT22;50345;51.136;16.886;2023-10-19T08:11:15;8.20;99.90
6956;DHT22;50345;51.136;16.886;2023-10-19T08:13:42;8.20;99.90
6956;DHT22;50345;51.136;16.886;2023-10-19T08:16:08;8.20;99.90
6956;DHT22;50345;51.136;16.886;2023-10-19T08:18:35;8.10;99.90
6956;DHT22;50345;51.136;16.886;2023-10-19T08:21:01;8.20;99.90
6956;DHT22;50345;51.136;16.886;2023-10-19T08:23:27;8.20;99.90
6956;DHT22;50345;51.136;16.886;2023-10-19T08:25:54;8.20;99.90
6956;DHT22;50345;51.136;16.886;2023-10-19T08:28:20;8.20;99.90
6956;DHT22;50345;51.136;16.886;2023-10-19T08:30:47;8.30;99.90
6956;DHT22;50345;51.136;16.886;2023-10-19T08:33:26;8.40;99.90
6956;DHT22;50345;51.136;16.886;2023-10-19T08:35:53;8.30;99.90
6956;DHT22;50345;51.136;16.886;2023-10-19T08:38:19;8.30;99.90
6956;DHT22;50345;51.136;16.886;2023-10-19T08:40:45;8.30;99.90
6956;DHT22;50345;51.136;16.886;2023-10-19T08:43:11;8.30;99.90
6956;DHT22;50345;51.136;16.886;2023-10-19T08:45:39;8.30;99.90
6956;DHT22;50345;51.136;16.886;2023-10-19T08:48:05;8.40;99.90
6956;DHT22;50345;51.136;16.886;2023-10-19T08:50:32;8.50;99.90
6956;DHT22;50345;51.136;16.886;2023-10-19T08:53:00;8.60;99.90
6956;DHT22;50345;51.136;16.886;2023-10-19T08:55:29;8.70;99.90
6956;DHT22;50345;51.136;16.886;2023-10-19T08:58:01;8.90;99.90
6956;DHT22;50345;51.136;16.886;2023-10-19T09:00:43;9.10;99.90
6956;DHT22;50345;51.136;16.886;2023-10-19T09:03:10;9.20;99.90
6956;DHT22;50345;51.136;16.886;2023-10-19T09:05:39;9.30;99.90
6956;DHT22;50345;51.136;16.886;2023-10-19T09:08:05;9.30;99.90
6956;DHT22;50345;51.136;16.886;2023-10-19T09:10:31;9.20;99.90
6956;DHT22;50345;51.136;16.886;2023-10-19T09:13:04;9.20;99.90
6956;DHT22;50345;51.136;16.886;2023-10-19T09:15:33;9.20;99.90
6956;DHT22;50345;51.136;16.886;2023-10-19T09:18:12;9.20;99.90
6956;DHT22;50345;51.136;16.886;2023-10-19T09:20:39;9.30;99.90
6956;DHT22;50345;51.136;16.886;2023-10-19T09:23:07;9.30;99.90
6956;DHT22;50345;51.136;16.886;2023-10-19T09:25:32;9.30;99.90
6956;DHT22;50345;51.136;16.886;2023-10-19T09:28:00;9.20;99.90
6956;DHT22;50345;51.136;16.886;2023-10-19T09:30:29;9.20;99.90
6956;DHT22;50345;51.136;16.886;2023-10-19T09:32:56;9.20;99.90
6956;DHT22;50345;51.136;16.886;2023-10-19T09:35:24;9.20;99.90
6956;DHT22;50345;51.136;16.886;2023-10-19T09:37:55;9.20;99.90
6956;DHT22;50345;51.136;16.886;2023-10-19T09:40:22;9.10;99.90
6956;DHT22;50345;51.136;16.886;2023-10-19T09:42:53;9.10;99.90
6956;DHT22;50345;51.136;16.886;2023-10-19T09:45:19;9.10;99.90
6956;DHT22;50345;51.136;16.886;2023-10-19T09:47:50;9.20;99.90
6956;DHT22;50345;51.136;16.886;2023-10-19T09:50:16;9.20;99.90
6956;DHT22;50345;51.136;16.886;2023-10-19T09:52:42;9.20;99.90
6956;DHT22;50345;51.136;16.886;2023-10-19T09:55:22;9.20;99.90
6956;DHT22;50345;51.136;16.886;2023-10-19T09:57:57;9.20;99.90
6956;DHT22;50345;51.136;16.886;2023-10-19T10:00:24;9.20;99.90
6956;DHT22;50345;51.136;16.886;2023-10-19T10:02:50;9.20;99.90
6956;DHT22;50345;51.136;16.886;2023-10-19T10:10:45;9.20;99.90
6956;DHT22;50345;51.136;16.886;2023-10-19T10:15:56;9.30;99.90
6956;DHT22;50345;51.136;16.886;2023-10-19T10:18:33;9.30;99.90
6956;DHT22;50345;51.136;16.886;2023-10-19T10:21:22;9.30;99.90
6956;DHT22;50345;51.136;16.886;2023-10-19T10:23:59;9.40;99.90
6956;DHT22;50345;51.136;16.886;2023-10-19T10:26:27;9.30;99.90
6956;DHT22;50345;51.136;16.886;2023-10-19T10:29:14;9.40;99.90
6956;DHT22;50345;51.136;16.886;2023-10-19T10:31:49;9.30;99.90
6956;DHT22;50345;51.136;16.886;2023-10-19T10:37:07;9.30;99.90
6956;DHT22;50345;51.136;16.886;2023-10-19T10:39:34;9.30;99.90
6956;DHT22;50345;51.136;16.886;2023-10-19T10:42:07;9.30;99.90
6956;DHT22;50345;51.136;16.886;2023-10-19T10:47:09;9.30;99.90
6956;DHT22;50345;51.136;16.886;2023-10-19T10:49:56;9.40;99.90
6956;DHT22;50345;51.136;16.886;2023-10-19T10:52:33;9.30;99.90
6956;DHT22;50345;51.136;16.886;2023-10-19T10:57:33;9.30;99.90
6956;DHT22;50345;51.136;16.886;2023-10-19T11:00:03;9.30;99.90
6956;DHT22;50345;51.136;16.886;2023-10-19T11:02:30;9.20;99.90
6956;DHT22;50345;51.136;16.886;2023-10-19T11:04:56;9.20;99.90
6956;DHT22;50345;51.136;16.886;2023-10-19T11:07:21;9.20;99.90
6956;DHT22;50345;51.136;16.886;2023-10-19T11:09:47;9.20;99.90
6956;DHT22;50345;51.136;16.886;2023-10-19T11:12:14;9.30;99.90
6956;DHT22;50345;51.136;16.886;2023-10-19T11:14:54;9.30;99.90
6956;DHT22;50345;51.136;16.886;2023-10-19T11:17:20;9.40;99.90
6956;DHT22;50345;51.136;16.886;2023-10-19T11:19:49;9.40;99.90
6956;DHT22;50345;51.136;16.886;2023-10-19T11:22:15;9.40;99.90
6956;DHT22;50345;51.136;16.886;2023-10-19T11:24:40;9.40;99.90
6956;DHT22;50345;51.136;16.886;2023-10-19T11:27:06;9.40;99.90
6956;DHT22;50345;51.136;16.886;2023-10-19T11:29:37;9.30;99.90
6956;DHT22;50345;51.136;16.886;2023-10-19T11:32:03;9.30;99.90
6956;DHT22;50345;51.136;16.886;2023-10-19T11:34:28;9.30;99.90
6956;DHT22;50345;51.136;16.886;2023-10-19T11:36:56;9.40;99.90
6956;DHT22;50345;51.136;16.886;2023-10-19T11:39:27;9.40;99.90
6956;DHT22;50345;51.136;16.886;2023-10-19T11:41:54;9.40;99.90
6956;DHT22;50345;51.136;16.886;2023-10-19T11:44:19;9.50;99.90
6956;DHT22;50345;51.136;16.886;2023-10-19T11:46:45;9.50;99.90
6956;DHT22;50345;51.136;16.886;2023-10-19T11:49:11;9.60;99.90
6956;DHT22;50345;51.136;16.886;2023-10-19T11:51:37;9.60;99.90
6956;DHT22;50345;51.136;16.886;2023-10-19T11:54:04;9.60;99.90
6956;DHT22;50345;51.136;16.886;2023-10-19T11:56:31;9.60;99.90
6956;DHT22;50345;51.136;16.886;2023-10-19T11:58:57;9.70;99.90
6956;DHT22;50345;51.136;16.886;2023-10-19T12:01:22;9.70;99.90
6956;DHT22;50345;51.136;16.886;2023-10-19T12:03:50;9.60;99.90
6956;DHT22;50345;51.136;16.886;2023-10-19T12:06:16;9.50;99.90
6956;DHT22;50345;51.136;16.886;2023-10-19T12:08:45;9.50;99.90
6956;DHT22;50345;51.136;16.886;2023-10-19T12:11:11;9.50;99.90
6956;DHT22;50345;51.136;16.886;2023-10-19T12:13:44;9.50;99.90
6956;DHT22;50345;51.136;16.886;2023-10-19T12:16:10;9.50;99.90
6956;DHT22;50345;51.136;16.886;2023-10-19T12:18:39;9.50;99.90
6956;DHT22;50345;51.136;16.886;2023-10-19T12:21:04;9.60;99.90
6956;DHT22;50345;51.136;16.886;2023-10-19T12:23:33;9.70;99.90
6956;DHT22;50345;51.136;16.886;2023-10-19T12:25:59;9.80;99.90
6956;DHT22;50345;51.136;16.886;2023-10-19T12:28:28;9.90;99.90
6956;DHT22;50345;51.136;16.886;2023-10-19T12:30:54;9.90;99.90
6956;DHT22;50345;51.136;16.886;2023-10-19T12:33:21;10.00;99.90
6956;DHT22;50345;51.136;16.886;2023-10-19T12:35:47;10.00;99.90
6956;DHT22;50345;51.136;16.886;2023-10-19T12:38:24;10.00;99.90
6956;DHT22;50345;51.136;16.886;2023-10-19T12:40:51;10.00;99.90
6956;DHT22;50345;51.136;16.886;2023-10-19T12:43:18;10.00;99.90
6956;DHT22;50345;51.136;16.886;2023-10-19T12:45:50;10.10;99.90
6956;DHT22;50345;51.136;16.886;2023-10-19T12:48:19;10.10;99.90
6956;DHT22;50345;51.136;16.886;2023-10-19T12:50:46;10.10;99.90
6956;DHT22;50345;51.136;16.886;2023-10-19T12:53:12;10.10;99.90
6956;DHT22;50345;51.136;16.886;2023-10-19T12:55:39;10.00;99.90
6956;DHT22;50345;51.136;16.886;2023-10-19T12:58:05;10.00;99.90
6956;DHT22;50345;51.136;16.886;2023-10-19T13:00:35;9.90;99.90
6956;DHT22;50345;51.136;16.886;2023-10-19T13:03:07;10.00;99.90
6956;DHT22;50345;51.136;16.886;2023-10-19T13:05:34;9.90;99.90
6956;DHT22;50345;51.136;16.886;2023-10-19T13:08:00;9.90;99.90
6956;DHT22;50345;51.136;16.886;2023-10-19T13:10:30;10.00;99.90
6956;DHT22;50345;51.136;16.886;2023-10-19T13:13:03;10.00;99.90
6956;DHT22;50345;51.136;16.886;2023-10-19T13:15:33;10.00;99.90
6956;DHT22;50345;51.136;16.886;2023-10-19T13:18:00;10.00;99.90
6956;DHT22;50345;51.136;16.886;2023-10-19T13:20:30;10.00;99.90
6956;DHT22;50345;51.136;16.886;2023-10-19T13:23:06;10.00;99.90
6956;DHT22;50345;51.136;16.886;2023-10-19T13:25:33;10.00;99.90
6956;DHT22;50345;51.136;16.886;2023-10-19T13:28:12;10.00;99.90
6956;DHT22;50345;51.136;16.886;2023-10-19T13:30:49;10.00;99.90
6956;DHT22;50345;51.136;16.886;2023-10-19T13:33:16;10.10;99.90
6956;DHT22;50345;51.136;16.886;2023-10-19T13:35:44;10.10;99.90
6956;DHT22;50345;51.136;16.886;2023-10-19T13:38:10;10.10;99.90
6956;DHT22;50345;51.136;16.886;2023-10-19T13:40:41;10.10;99.90
6956;DHT22;50345;51.136;16.886;2023-10-19T13:43:08;10.10;99.90
6956;DHT22;50345;51.136;16.886;2023-10-19T13:45:36;10.10;99.90
6956;DHT22;50345;51.136;16.886;2023-10-19T13:48:06;10.10;99.90
6956;DHT22;50345;51.136;16.886;2023-10-19T13:50:32;10.20;99.90
6956;DHT22;50345;51.136;16.886;2023-10-19T13:52:58;10.20;99.90
6956;DHT22;50345;51.136;16.886;2023-10-19T13:55:26;10.20;99.90
6956;DHT22;50345;51.136;16.886;2023-10-19T13:57:52;10.30;99.90
6956;DHT22;50345;51.136;16.886;2023-10-19T14:00:20;10.30;99.90
6956;DHT22;50345;51.136;16.886;2023-10-19T14:02:56;10.30;99.90
6956;DHT22;50345;51.136;16.886;2023-10-19T14:05:22;10.30;99.90
6956;DHT22;50345;51.136;16.886;2023-10-19T14:07:50;10.30;99.90
6956;DHT22;50345;51.136;16.886;2023-10-19T14:10:17;10.30;99.90
6956;DHT22;50345;51.136;16.886;2023-10-19T14:12:45;10.30;99.90
6956;DHT22;50345;51.136;16.886;2023-10-19T14:15:18;10.20;99.90
6956;DHT22;50345;51.136;16.886;2023-10-19T14:17:47;10.20;99.90
6956;DHT22;50345;51.136;16.886;2023-10-19T14:20:14;10.20;99.90
6956;DHT22;50345;51.136;16.886;2023-10-19T14:22:45;10.20;99.90
6956;DHT22;50345;51.136;16.886;2023-10-19T14:25:13;10.10;99.90
6956;DHT22;50345;51.136;16.886;2023-10-19T14:27:43;10.10;99.90
6956;DHT22;50345;51.136;16.886;2023-10-19T14:30:10;10.10;99.90
6956;DHT22;50345;51.136;16.886;2023-10-19T14:32:45;10.10;99.90
6956;DHT22;50345;51.136;16.886;2023-10-19T14:35:13;10.20;99.90
6956;DHT22;50345;51.136;16.886;2023-10-19T14:37:41;10.20;99.90
6956;DHT22;50345;51.136;16.886;2023-10-19T14:40:09;10.20;99.90
6956;DHT22;50345;51.136;16.886;2023-10-19T14:42:39;10.20;99.90
6956;DHT22;50345;51.136;16.886;2023-10-19T14:45:13;10.20;99.90
6956;DHT22;50345;51.136;16.886;2023-10-19T14:47:52;10.20;99.90
6956;DHT22;50345;51.136;16.886;2023-10-19T14:50:18;10.20;99.90
6956;DHT22;50345;51.136;16.886;2023-10-19T14:52:45;10.20;99.90
6956;DHT22;50345;51.136;16.886;2023-10-19T14:55:12;10.30;99.90
6956;DHT22;50345;51.136;16.886;2023-10-19T14:57:41;10.30;99.90
6956;DHT22;50345;51.136;16.886;2023-10-19T15:00:09;10.30;99.90
6956;DHT22;50345;51.136;16.886;2023-10-19T15:02:50;10.30;99.90
6956;DHT22;50345;51.136;16.886;2023-10-19T15:05:17;10.20;99.90
6956;DHT22;50345;51.136;16.886;2023-10-19T15:07:48;10.20;99.90
6956;DHT22;50345;51.136;16.886;2023-10-19T15:10:26;10.20;99.90
6956;DHT22;50345;51.136;16.886;2023-10-19T15:12:53;10.20;99.90
6956;DHT22;50345;51.136;16.886;2023-10-19T15:15:19;10.20;99.90
6956;DHT22;50345;51.136;16.886;2023-10-19T15:17:46;10.10;99.90
6956;DHT22;50345;51.136;16.886;2023-10-19T15:20:14;10.20;99.90
6956;DHT22;50345;51.136;16.886;2023-10-19T15:22:41;10.10;99.90
6956;DHT22;50345;51.136;16.886;2023-10-19T15:25:07;10.10;99.90
6956;DHT22;50345;51.136;16.886;2023-10-19T15:27:33;10.10;99.90
6956;DHT22;50345;51.136;16.886;2023-10-19T15:30:00;10.10;99.90
6956;DHT22;50345;51.136;16.886;2023-10-19T15:32:25;10.10;99.90
6956;DHT22;50345;51.136;16.886;2023-10-19T15:34:51;10.10;99.90
6956;DHT22;50345;51.136;16.886;2023-10-19T15:37:18;10.10;99.90
6956;DHT22;50345;51.136;16.886;2023-10-19T15:39:43;10.10;99.90
6956;DHT22;50345;51.136;16.886;2023-10-19T15:42:10;10.00;99.90
6956;DHT22;50345;51.136;16.886;2023-10-19T15:44:37;10.00;99.90
6956;DHT22;50345;51.136;16.886;2023-10-19T15:47:03;10.00;99.90
6956;DHT22;50345;51.136;16.886;2023-10-19T15:49:36;10.00;99.90
6956;DHT22;50345;51.136;16.886;2023-10-19T15:52:03;10.00;99.90
6956;DHT22;50345;51.136;16.886;2023-10-19T15:54:29;10.00;99.90
6956;DHT22;50345;51.136;16.886;2023-10-19T15:56:54;10.00;99.90
6956;DHT22;50345;51.136;16.886;2023-10-19T15:59:20;10.00;99.90
6956;DHT22;50345;51.136;16.886;2023-10-19T16:01:46;10.00;99.90
6956;DHT22;50345;51.136;16.886;2023-10-19T16:04:12;10.00;99.90
6956;DHT22;50345;51.136;16.886;2023-10-19T16:06:37;10.00;99.90
6956;DHT22;50345;51.136;16.886;2023-10-19T16:09:03;10.00;99.90